createdAt,value
2017-09-26T00:00:13.123Z,12.64
2017-09-26T00:01:13.127Z,12.64
2017-09-26T00:02:13.130Z,12.64
2017-09-26T00:03:13.131Z,12.65
2017-09-26T00:04:13.134Z,12.64
2017-09-26T00:05:13.136Z,12.65
2017-09-26T00:06:13.140Z,12.62
2017-09-26T00:07:13.392Z,12.62
2017-09-26T00:08:13.443Z,12.58
2017-09-26T00:09:13.152Z,12.58
2017-09-26T00:10:13.152Z,12.58
2017-09-26T00:11:13.156Z,12.57
2017-09-26T00:12:13.166Z,12.55
2017-09-26T00:13:13.171Z,12.53
2017-09-26T00:14:13.329Z,12.54
2017-09-26T00:15:13.244Z,12.52
2017-09-26T00:16:13.181Z,12.51
2017-09-26T00:17:13.189Z,12.50
2017-09-26T00:18:13.194Z,12.50
2017-09-26T00:19:13.183Z,12.48
2017-09-26T00:20:13.189Z,12.46
2017-09-26T00:21:13.193Z,12.46
2017-09-26T00:22:13.413Z,12.46
2017-09-26T00:23:13.199Z,12.44
2017-09-26T00:24:13.201Z,12.44
2017-09-26T00:25:13.207Z,12.47
2017-09-26T00:26:13.207Z,12.50
2017-09-26T00:27:13.210Z,12.49
2017-09-26T00:28:13.217Z,12.51
2017-09-26T00:29:13.218Z,12.54
2017-09-26T00:30:13.232Z,12.57
2017-09-26T00:31:13.223Z,12.57
2017-09-26T00:32:13.228Z,12.58
2017-09-26T00:33:13.232Z,12.58
2017-09-26T00:34:13.238Z,12.56
2017-09-26T00:35:13.240Z,12.55
2017-09-26T00:36:13.242Z,12.55
2017-09-26T00:37:13.243Z,12.55
2017-09-26T00:38:13.248Z,12.53
2017-09-26T00:39:13.250Z,12.51
2017-09-26T00:40:13.254Z,12.49
2017-09-26T00:41:13.325Z,12.50
2017-09-26T00:42:13.266Z,12.49
2017-09-26T00:43:13.264Z,12.48
2017-09-26T00:44:13.269Z,12.49
2017-09-26T00:45:13.500Z,12.50
2017-09-26T00:46:13.272Z,12.50
2017-09-26T00:47:13.281Z,12.51
2017-09-26T00:48:13.287Z,12.51
2017-09-26T00:49:13.282Z,12.50
2017-09-26T00:50:13.310Z,12.53
2017-09-26T00:51:13.289Z,12.55
2017-09-26T00:52:13.290Z,12.58
2017-09-26T00:53:13.295Z,12.59
2017-09-26T00:54:13.299Z,12.60
2017-09-26T00:55:13.304Z,12.62
2017-09-26T00:56:13.305Z,12.64
2017-09-26T00:57:13.368Z,12.65
2017-09-26T00:58:13.312Z,12.65
2017-09-26T00:59:13.316Z,12.65
2017-09-26T01:03:08.897Z,12.65
2017-09-26T01:03:10.247Z,12.64
2017-09-26T01:03:11.064Z,12.65
2017-09-26T01:03:13.329Z,12.66
2017-09-26T01:05:47.922Z,12.65
2017-09-26T01:05:49.625Z,12.65
2017-09-26T01:09:04.138Z,12.64
2017-09-26T01:09:05.575Z,12.63
2017-09-26T01:09:06.501Z,12.62
2017-09-26T01:11:54.874Z,12.63
2017-09-26T01:11:56.792Z,12.65
2017-09-26T01:11:57.794Z,12.63
2017-09-26T01:15:06.859Z,12.63
2017-09-26T01:15:08.485Z,12.63
2017-09-26T01:15:09.506Z,12.65
2017-09-26T01:17:45.901Z,12.63
2017-09-26T01:17:47.118Z,12.61
2017-09-26T01:17:47.932Z,12.59
2017-09-26T01:20:27.852Z,12.56
2017-09-26T01:20:29.183Z,12.56
2017-09-26T01:20:29.997Z,12.56
2017-09-26T01:23:42.010Z,12.55
2017-09-26T01:23:43.707Z,12.55
2017-09-26T01:23:44.923Z,12.52
2017-09-26T01:26:28.097Z,12.54
2017-09-26T01:26:29.979Z,12.54
2017-09-26T01:26:30.897Z,12.56
2017-09-26T01:29:43.924Z,12.56
2017-09-26T01:29:45.818Z,12.57
2017-09-26T01:29:46.808Z,12.56
2017-09-26T01:32:30.066Z,12.57
2017-09-26T01:32:32.246Z,12.59
2017-09-26T01:32:33.066Z,12.60
2017-09-26T01:35:45.839Z,12.61
2017-09-26T01:35:47.174Z,12.65
2017-09-26T01:35:47.988Z,12.65
2017-09-26T01:39:09.070Z,12.64
2017-09-26T01:39:10.364Z,12.63
2017-09-26T01:39:11.178Z,12.62
2017-09-26T01:41:45.872Z,12.59
2017-09-26T01:41:47.921Z,12.57
2017-09-26T01:41:48.730Z,12.53
2017-09-26T01:44:33.204Z,12.51
2017-09-26T01:44:35.079Z,12.50
2017-09-26T01:44:36.099Z,12.51
2017-09-26T01:45:13.467Z,12.54
2017-09-26T01:47:45.823Z,12.53
2017-09-26T01:47:47.235Z,12.51
2017-09-26T01:50:28.112Z,12.50
2017-09-26T01:50:29.655Z,12.50
2017-09-26T01:50:30.267Z,12.50
2017-09-26T01:53:45.816Z,12.51
2017-09-26T01:53:47.266Z,12.52
2017-09-26T01:53:48.085Z,12.53
2017-09-26T01:56:30.896Z,12.51
2017-09-26T01:56:32.740Z,12.49
2017-09-26T01:56:33.770Z,12.50
2017-09-26T01:59:45.861Z,12.50
2017-09-26T01:59:48.271Z,12.50
2017-09-26T01:59:49.108Z,12.49
2017-09-26T02:00:13.534Z,12.48
2017-09-26T02:01:13.520Z,12.48
2017-09-26T02:02:13.527Z,12.49
2017-09-26T02:03:13.530Z,12.47
2017-09-26T02:04:13.541Z,12.45
2017-09-26T02:05:13.548Z,12.43
2017-09-26T02:06:13.552Z,12.43
2017-09-26T02:07:13.543Z,12.42
2017-09-26T02:08:13.545Z,12.42
2017-09-26T02:09:13.550Z,12.43
2017-09-26T02:10:13.552Z,12.42
2017-09-26T02:11:13.554Z,12.44
2017-09-26T02:12:13.558Z,12.41
2017-09-26T02:13:13.614Z,12.39
2017-09-26T02:14:13.569Z,12.41
2017-09-26T02:15:13.577Z,12.44
2017-09-26T02:16:13.569Z,12.45
2017-09-26T02:17:13.589Z,12.47
2017-09-26T02:18:13.575Z,12.45
2017-09-26T02:19:13.581Z,12.44
2017-09-26T02:20:13.590Z,12.44
2017-09-26T02:21:13.595Z,12.41
2017-09-26T02:22:13.590Z,12.40
2017-09-26T02:23:13.591Z,12.41
2017-09-26T02:24:13.597Z,12.42
2017-09-26T02:25:13.600Z,12.44
2017-09-26T02:26:13.604Z,12.44
2017-09-26T02:27:13.608Z,12.44
2017-09-26T02:28:13.613Z,12.43
2017-09-26T02:29:13.612Z,12.44
2017-09-26T02:30:13.627Z,12.41
2017-09-26T02:31:13.617Z,12.41
2017-09-26T02:32:13.623Z,12.42
2017-09-26T02:33:13.633Z,12.41
2017-09-26T02:34:13.634Z,12.41
2017-09-26T02:35:13.642Z,12.40
2017-09-26T02:36:13.635Z,12.41
2017-09-26T02:37:13.641Z,12.46
2017-09-26T02:38:13.644Z,12.44
2017-09-26T02:39:13.648Z,12.43
2017-09-26T02:40:13.651Z,12.43
2017-09-26T02:41:13.654Z,12.43
2017-09-26T02:42:13.658Z,12.42
2017-09-26T02:43:13.659Z,12.42
2017-09-26T02:44:13.665Z,12.42
2017-09-26T02:45:13.693Z,12.42
2017-09-26T02:46:13.666Z,12.42
2017-09-26T02:47:13.671Z,12.42
2017-09-26T02:48:13.678Z,12.45
2017-09-26T02:49:13.680Z,12.45
2017-09-26T02:50:13.689Z,12.44
2017-09-26T02:51:13.689Z,12.44
2017-09-26T02:52:13.691Z,12.44
2017-09-26T02:53:13.690Z,12.45
2017-09-26T02:54:13.699Z,12.46
2017-09-26T02:55:13.696Z,12.46
2017-09-26T02:56:13.703Z,12.43
2017-09-26T02:57:13.709Z,12.45
2017-09-26T02:58:13.710Z,12.47
2017-09-26T02:59:13.715Z,12.46
2017-09-26T03:00:13.725Z,12.46
2017-09-26T03:01:13.719Z,12.47
2017-09-26T03:02:13.725Z,12.46
2017-09-26T03:03:13.725Z,12.44
2017-09-26T03:04:13.728Z,12.43
2017-09-26T03:05:13.731Z,12.43
2017-09-26T03:06:13.757Z,12.44
2017-09-26T03:07:13.819Z,12.46
2017-09-26T03:08:13.773Z,12.45
2017-09-26T03:09:13.803Z,12.48
2017-09-26T03:10:13.759Z,12.49
2017-09-26T03:11:13.769Z,12.51
2017-09-26T03:12:16.501Z,12.51
2017-09-26T03:14:05.147Z,12.52
2017-09-26T03:14:06.523Z,12.53
2017-09-26T03:14:13.790Z,12.52
2017-09-26T03:15:13.795Z,12.51
2017-09-26T03:16:13.772Z,12.52
2017-09-26T03:17:13.775Z,12.54
2017-09-26T03:18:13.774Z,12.54
2017-09-26T03:19:13.781Z,12.52
2017-09-26T03:20:13.791Z,12.49
2017-09-26T03:21:13.800Z,12.50
2017-09-26T03:22:13.805Z,12.52
2017-09-26T03:23:13.811Z,12.52
2017-09-26T03:24:13.817Z,12.53
2017-09-26T03:25:13.828Z,12.51
2017-09-26T03:26:13.807Z,12.50
2017-09-26T03:27:13.804Z,12.51
2017-09-26T03:28:13.844Z,12.51
2017-09-26T03:29:13.813Z,12.52
2017-09-26T03:30:13.815Z,12.50
2017-09-26T03:31:13.818Z,12.49
2017-09-26T03:32:13.828Z,12.48
2017-09-26T03:33:13.827Z,12.48
2017-09-26T03:34:13.833Z,12.48
2017-09-26T03:35:13.838Z,12.44
2017-09-26T03:36:14.175Z,12.44
2017-09-26T03:37:13.837Z,12.44
2017-09-26T03:38:13.840Z,12.46
2017-09-26T03:39:13.848Z,12.46
2017-09-26T03:40:13.849Z,12.46
2017-09-26T03:41:13.853Z,12.46
2017-09-26T03:42:13.857Z,12.47
2017-09-26T03:43:13.858Z,12.49
2017-09-26T03:44:13.862Z,12.50
2017-09-26T03:45:13.906Z,12.51
2017-09-26T03:46:13.872Z,12.52
2017-09-26T03:47:13.891Z,12.53
2017-09-26T03:48:13.883Z,12.54
2017-09-26T03:49:13.880Z,12.54
2017-09-26T03:50:13.884Z,12.53
2017-09-26T03:51:13.891Z,12.53
2017-09-26T03:52:13.897Z,12.52
2017-09-26T03:53:13.905Z,12.51
2017-09-26T03:54:13.894Z,12.51
2017-09-26T03:55:13.897Z,12.51
2017-09-26T03:56:13.902Z,12.51
2017-09-26T03:57:13.905Z,12.51
2017-09-26T03:58:13.908Z,12.50
2017-09-26T03:59:13.913Z,12.49
2017-09-26T04:00:13.916Z,12.48
2017-09-26T04:01:13.920Z,12.46
2017-09-26T04:02:13.930Z,12.46
2017-09-26T04:03:13.923Z,12.46
2017-09-26T04:04:13.926Z,12.47
2017-09-26T04:05:13.933Z,12.47
2017-09-26T04:06:13.937Z,12.48
2017-09-26T04:07:13.941Z,12.47
2017-09-26T04:08:13.947Z,12.47
2017-09-26T04:09:13.943Z,12.47
2017-09-26T04:10:13.952Z,12.47
2017-09-26T04:11:13.953Z,12.46
2017-09-26T04:12:13.959Z,12.45
2017-09-26T04:13:13.967Z,12.46
2017-09-26T04:14:13.961Z,12.44
2017-09-26T04:15:13.976Z,12.41
2017-09-26T04:16:13.966Z,12.38
2017-09-26T04:17:13.970Z,12.39
2017-09-26T04:18:13.977Z,12.41
2017-09-26T04:19:13.980Z,12.41
2017-09-26T04:20:13.987Z,12.39
2017-09-26T04:21:13.996Z,12.37
2017-09-26T04:22:14.011Z,12.35
2017-09-26T04:23:13.999Z,12.35
2017-09-26T04:24:13.996Z,12.34
2017-09-26T04:25:14.001Z,12.34
2017-09-26T04:26:14.003Z,12.35
2017-09-26T04:27:14.007Z,12.36
2017-09-26T04:28:14.008Z,12.35
2017-09-26T04:29:14.011Z,12.35
2017-09-26T04:30:14.019Z,12.33
2017-09-26T04:31:14.025Z,12.33
2017-09-26T04:32:14.022Z,12.34
2017-09-26T04:33:14.026Z,12.37
2017-09-26T04:34:14.031Z,12.35
2017-09-26T04:35:14.036Z,12.36
2017-09-26T04:36:14.036Z,12.35
2017-09-26T04:37:14.043Z,12.36
2017-09-26T04:38:14.054Z,12.34
2017-09-26T04:39:14.043Z,12.34
2017-09-26T04:40:14.055Z,12.33
2017-09-26T04:41:14.055Z,12.34
2017-09-26T04:42:14.053Z,12.37
2017-09-26T04:43:14.063Z,12.37
2017-09-26T04:44:14.079Z,12.35
2017-09-26T04:45:14.064Z,12.34
2017-09-26T04:46:14.071Z,12.33
2017-09-26T04:47:14.069Z,12.34
2017-09-26T04:48:14.076Z,12.33
2017-09-26T04:49:14.095Z,12.31
2017-09-26T04:50:14.085Z,12.32
2017-09-26T04:51:14.103Z,12.35
2017-09-26T04:52:14.091Z,12.33
2017-09-26T04:53:14.099Z,12.31
2017-09-26T04:54:14.118Z,12.31
2017-09-26T04:55:14.118Z,12.29
2017-09-26T04:56:14.127Z,12.31
2017-09-26T04:57:14.119Z,12.32
2017-09-26T04:58:14.113Z,12.34
2017-09-26T04:59:14.117Z,12.35
2017-09-26T05:00:14.114Z,12.35
2017-09-26T05:01:14.126Z,12.35
2017-09-26T05:02:14.129Z,12.34
2017-09-26T05:03:14.130Z,12.33
2017-09-26T05:04:14.127Z,12.34
2017-09-26T05:05:14.134Z,12.35
2017-09-26T05:06:14.135Z,12.34
2017-09-26T05:07:14.142Z,12.31
2017-09-26T05:08:14.150Z,12.32
2017-09-26T05:09:14.143Z,12.32
2017-09-26T05:10:14.150Z,12.32
2017-09-26T05:11:14.155Z,12.32
2017-09-26T05:12:14.195Z,12.30
2017-09-26T05:13:14.161Z,12.30
2017-09-26T05:14:14.160Z,12.30
2017-09-26T05:15:14.167Z,12.32
2017-09-26T05:16:14.169Z,12.32
2017-09-26T05:17:14.172Z,12.33
2017-09-26T05:18:14.183Z,12.36
2017-09-26T05:19:14.177Z,12.37
2017-09-26T05:20:14.197Z,12.38
2017-09-26T05:21:14.193Z,12.41
2017-09-26T05:22:14.191Z,12.42
2017-09-26T05:23:14.198Z,12.42
2017-09-26T05:24:14.207Z,12.43
2017-09-26T05:25:14.199Z,12.43
2017-09-26T05:26:14.221Z,12.44
2017-09-26T05:27:14.528Z,12.43
2017-09-26T05:28:14.239Z,12.44
2017-09-26T05:29:14.212Z,12.44
2017-09-26T05:30:14.220Z,12.44
2017-09-26T05:31:14.460Z,12.44
2017-09-26T05:32:14.224Z,12.45
2017-09-26T05:33:14.228Z,12.44
2017-09-26T05:34:14.234Z,12.42
2017-09-26T05:35:14.232Z,12.43
2017-09-26T05:36:14.242Z,12.44
2017-09-26T05:37:14.241Z,12.43
2017-09-26T05:38:14.243Z,12.45
2017-09-26T05:39:14.243Z,12.45
2017-09-26T05:40:14.250Z,12.47
2017-09-26T05:41:14.253Z,12.47
2017-09-26T05:42:14.256Z,12.49
2017-09-26T05:43:14.260Z,12.49
2017-09-26T05:44:14.261Z,12.50
2017-09-26T05:45:14.268Z,12.48
2017-09-26T05:46:14.268Z,12.49
2017-09-26T05:47:14.273Z,12.48
2017-09-26T05:48:14.289Z,12.48
2017-09-26T05:49:14.275Z,12.50
2017-09-26T05:50:14.286Z,12.50
2017-09-26T05:51:14.287Z,12.51
2017-09-26T05:52:14.290Z,12.52
2017-09-26T05:53:14.296Z,12.51
2017-09-26T05:54:14.300Z,12.53
2017-09-26T05:55:14.313Z,12.57
2017-09-26T05:56:14.318Z,12.57
2017-09-26T05:57:14.308Z,12.57
2017-09-26T05:58:14.308Z,12.58
2017-09-26T05:59:14.316Z,12.60
2017-09-26T06:00:14.324Z,12.59
2017-09-26T06:01:14.323Z,12.59
2017-09-26T06:02:14.320Z,12.62
2017-09-26T06:03:14.326Z,12.59
2017-09-26T06:04:14.327Z,12.62
2017-09-26T06:05:14.336Z,12.63
2017-09-26T06:06:14.333Z,12.65
2017-09-26T06:07:14.341Z,12.65
2017-09-26T06:08:14.407Z,12.66
2017-09-26T06:09:14.348Z,12.65
2017-09-26T06:10:14.351Z,12.66
2017-09-26T06:11:14.356Z,12.66
2017-09-26T06:12:14.360Z,12.66
2017-09-26T06:13:14.358Z,12.67
2017-09-26T06:14:14.368Z,12.68
2017-09-26T06:15:14.367Z,12.70
2017-09-26T06:16:14.367Z,12.71
2017-09-26T06:17:14.374Z,12.69
2017-09-26T06:18:14.383Z,12.71
2017-09-26T06:19:14.382Z,12.75
2017-09-26T06:20:14.390Z,12.73
2017-09-26T06:21:14.389Z,12.73
2017-09-26T06:22:14.410Z,12.76
2017-09-26T06:23:14.401Z,12.77
2017-09-26T06:24:14.403Z,12.79
2017-09-26T06:25:14.415Z,12.80
2017-09-26T06:26:14.406Z,12.82
2017-09-26T06:27:14.405Z,12.84
2017-09-26T06:28:14.411Z,12.83
2017-09-26T06:29:14.414Z,12.85
2017-09-26T06:30:14.416Z,12.82
2017-09-26T06:31:14.422Z,12.82
2017-09-26T06:32:14.425Z,12.85
2017-09-26T06:33:14.433Z,12.84
2017-09-26T06:34:14.431Z,12.82
2017-09-26T06:35:14.433Z,12.81
2017-09-26T06:36:14.435Z,12.83
2017-09-26T06:37:14.447Z,12.85
2017-09-26T06:38:14.445Z,12.88
2017-09-26T06:39:14.452Z,12.90
2017-09-26T06:40:14.458Z,12.88
2017-09-26T06:41:14.453Z,12.87
2017-09-26T06:42:14.479Z,12.84
2017-09-26T06:43:14.463Z,12.85
2017-09-26T06:44:14.477Z,12.84
2017-09-26T06:45:14.494Z,12.85
2017-09-26T06:46:14.589Z,12.87
2017-09-26T06:47:14.483Z,12.88
2017-09-26T06:48:14.480Z,12.90
2017-09-26T06:49:14.479Z,12.86
2017-09-26T06:50:14.489Z,12.88
2017-09-26T06:51:14.491Z,12.91
2017-09-26T06:52:14.489Z,12.92
2017-09-26T06:53:14.519Z,12.94
2017-09-26T06:54:14.509Z,12.97
2017-09-26T06:55:14.518Z,12.98
2017-09-26T06:56:14.512Z,12.99
2017-09-26T06:57:14.505Z,13.01
2017-09-26T06:58:14.510Z,13.03
2017-09-26T06:59:14.524Z,13.06
2017-09-26T07:00:14.518Z,13.07
2017-09-26T07:01:14.530Z,13.09
2017-09-26T07:02:14.522Z,13.11
2017-09-26T07:03:14.543Z,13.12
2017-09-26T07:04:14.533Z,13.12
2017-09-26T07:05:14.536Z,13.14
2017-09-26T07:06:14.536Z,13.16
2017-09-26T07:07:14.543Z,13.18
2017-09-26T07:08:14.544Z,13.22
2017-09-26T07:09:14.549Z,13.24
2017-09-26T07:10:14.556Z,13.24
2017-09-26T07:11:14.551Z,13.26
2017-09-26T07:12:14.559Z,13.29
2017-09-26T07:13:14.558Z,13.32
2017-09-26T07:14:14.560Z,13.36
2017-09-26T07:15:14.586Z,13.37
2017-09-26T07:16:14.570Z,13.39
2017-09-26T07:17:14.575Z,13.39
2017-09-26T07:18:14.579Z,13.41
2017-09-26T07:19:14.578Z,13.44
2017-09-26T07:20:14.583Z,13.46
2017-09-26T07:21:14.583Z,13.48
2017-09-26T07:22:14.588Z,13.50
2017-09-26T07:23:14.590Z,13.51
2017-09-26T07:24:14.596Z,13.51
2017-09-26T07:25:14.606Z,13.55
2017-09-26T07:26:14.611Z,13.62
2017-09-26T07:27:14.603Z,13.68
2017-09-26T07:28:14.616Z,13.76
2017-09-26T07:29:14.638Z,13.84
2017-09-26T07:30:14.638Z,13.93
2017-09-26T07:31:14.622Z,13.97
2017-09-26T07:32:14.781Z,14.01
2017-09-26T07:33:14.633Z,14.05
2017-09-26T07:34:14.686Z,14.10
2017-09-26T07:35:14.630Z,14.19
2017-09-26T07:36:14.647Z,14.26
2017-09-26T07:37:14.644Z,14.32
2017-09-26T07:38:14.649Z,14.38
2017-09-26T07:39:14.656Z,14.43
2017-09-26T07:40:14.678Z,14.53
2017-09-26T07:41:14.661Z,14.67
2017-09-26T07:42:14.696Z,14.79
2017-09-26T07:43:14.664Z,14.91
2017-09-26T07:44:14.659Z,15.11
2017-09-26T07:45:14.668Z,15.29
2017-09-26T07:46:14.673Z,15.44
2017-09-26T07:47:14.671Z,15.58
2017-09-26T07:48:14.677Z,15.75
2017-09-26T07:49:14.681Z,15.82
2017-09-26T07:50:14.688Z,15.90
2017-09-26T07:51:14.685Z,16.03
2017-09-26T07:52:14.688Z,16.09
2017-09-26T07:53:14.689Z,16.12
2017-09-26T07:54:14.696Z,16.13
2017-09-26T07:55:14.699Z,16.19
2017-09-26T07:56:14.709Z,16.17
2017-09-26T07:57:14.783Z,16.30
2017-09-26T07:58:14.711Z,16.38
2017-09-26T07:59:14.711Z,16.48
2017-09-26T08:00:14.715Z,16.56
2017-09-26T08:01:14.720Z,16.56
2017-09-26T08:02:14.726Z,16.69
2017-09-26T08:03:14.723Z,16.78
2017-09-26T08:04:14.731Z,16.80
2017-09-26T08:05:14.729Z,16.89
2017-09-26T08:06:14.732Z,17.06
2017-09-26T08:07:14.740Z,17.15
2017-09-26T08:08:14.747Z,17.23
2017-09-26T08:09:14.747Z,17.29
2017-09-26T08:10:14.748Z,17.18
2017-09-26T08:11:14.752Z,17.21
2017-09-26T08:12:14.755Z,17.27
2017-09-26T08:13:14.759Z,17.14
2017-09-26T08:14:14.764Z,17.08
2017-09-26T08:15:14.766Z,17.12
2017-09-26T08:16:14.771Z,17.17
2017-09-26T08:17:14.770Z,17.17
2017-09-26T08:18:14.774Z,17.21
2017-09-26T08:19:14.781Z,17.24
2017-09-26T08:20:14.780Z,17.10
2017-09-26T08:21:14.788Z,17.09
2017-09-26T08:22:14.789Z,16.97
2017-09-26T08:23:14.794Z,16.84
2017-09-26T08:24:14.795Z,16.82
2017-09-26T08:25:14.800Z,16.87
2017-09-26T08:26:14.811Z,16.95
2017-09-26T08:27:14.818Z,17.13
2017-09-26T08:28:14.817Z,17.34
2017-09-26T08:29:14.826Z,17.56
2017-09-26T08:30:14.844Z,17.66
2017-09-26T08:31:14.816Z,17.83
2017-09-26T08:32:14.835Z,17.98
2017-09-26T08:33:14.825Z,18.03
2017-09-26T08:34:14.828Z,18.04
2017-09-26T08:35:14.854Z,18.02
2017-09-26T08:36:14.837Z,17.90
2017-09-26T08:37:14.836Z,17.78
2017-09-26T08:38:14.839Z,17.73
2017-09-26T08:39:14.842Z,17.72
2017-09-26T08:40:14.847Z,17.67
2017-09-26T08:41:14.847Z,17.61
2017-09-26T08:42:14.855Z,17.59
2017-09-26T08:43:14.856Z,17.58
2017-09-26T08:44:14.861Z,17.68
2017-09-26T08:45:14.864Z,17.76
2017-09-26T08:46:14.866Z,17.84
2017-09-26T08:47:14.872Z,17.87
2017-09-26T08:48:14.870Z,17.91
2017-09-26T08:49:14.874Z,17.93
2017-09-26T08:50:14.881Z,17.83
2017-09-26T08:51:14.880Z,17.69
2017-09-26T08:52:14.884Z,17.50
2017-09-26T08:53:14.889Z,17.41
2017-09-26T08:54:14.891Z,17.35
2017-09-26T08:55:14.896Z,17.25
2017-09-26T08:56:14.904Z,17.19
2017-09-26T08:57:14.909Z,17.24
2017-09-26T08:58:14.919Z,17.26
2017-09-26T08:59:14.930Z,17.26
2017-09-26T09:00:14.919Z,17.24
2017-09-26T09:01:14.919Z,17.18
2017-09-26T09:02:14.915Z,17.08
2017-09-26T09:03:14.922Z,16.98
2017-09-26T09:04:14.928Z,16.92
2017-09-26T09:05:14.927Z,16.85
2017-09-26T09:06:14.930Z,16.80
2017-09-26T09:07:14.932Z,16.81
2017-09-26T09:08:14.939Z,16.82
2017-09-26T09:09:14.944Z,16.87
2017-09-26T09:10:14.950Z,16.82
2017-09-26T09:11:14.953Z,16.82
2017-09-26T09:12:14.950Z,16.85
2017-09-26T09:13:14.955Z,16.84
2017-09-26T09:14:14.959Z,16.78
2017-09-26T09:15:15.113Z,16.79
2017-09-26T09:16:14.992Z,16.78
2017-09-26T09:17:14.971Z,16.78
2017-09-26T09:18:14.974Z,16.80
2017-09-26T09:19:14.997Z,16.85
2017-09-26T09:20:14.981Z,16.87
2017-09-26T09:21:14.986Z,16.87
2017-09-26T09:22:14.995Z,16.84
2017-09-26T09:23:14.993Z,16.85
2017-09-26T09:24:15.009Z,16.85
2017-09-26T09:25:15.013Z,16.86
2017-09-26T09:26:15.025Z,16.88
2017-09-26T09:27:15.006Z,16.89
2017-09-26T09:28:15.007Z,16.89
2017-09-26T09:29:15.006Z,16.91
2017-09-26T09:30:15.009Z,16.94
2017-09-26T09:31:15.019Z,16.92
2017-09-26T09:32:15.019Z,16.85
2017-09-26T09:33:15.020Z,16.82
2017-09-26T09:34:15.026Z,16.77
2017-09-26T09:35:15.037Z,16.71
2017-09-26T09:36:15.032Z,16.64
2017-09-26T09:37:15.042Z,16.56
2017-09-26T09:38:15.037Z,16.51
2017-09-26T09:39:15.042Z,16.48
2017-09-26T09:40:15.044Z,16.47
2017-09-26T09:41:15.049Z,16.47
2017-09-26T09:42:15.052Z,16.44
2017-09-26T09:43:15.063Z,16.38
2017-09-26T09:44:15.060Z,16.29
2017-09-26T09:45:15.065Z,16.28
2017-09-26T09:46:15.067Z,16.23
2017-09-26T09:47:15.067Z,16.21
2017-09-26T09:48:15.071Z,16.15
2017-09-26T09:49:15.076Z,16.14
2017-09-26T09:50:15.075Z,16.09
2017-09-26T09:51:15.082Z,16.03
2017-09-26T09:52:15.087Z,16.01
2017-09-26T09:53:15.087Z,15.97
2017-09-26T09:54:15.090Z,15.91
2017-09-26T09:55:15.098Z,15.89
2017-09-26T09:56:15.098Z,15.87
2017-09-26T09:57:15.108Z,15.82
2017-09-26T09:58:15.105Z,15.73
2017-09-26T09:59:15.128Z,15.67
2017-09-26T10:00:15.111Z,15.67
2017-09-26T10:01:15.114Z,15.70
2017-09-26T10:02:15.118Z,15.67
2017-09-26T10:03:15.118Z,15.68
2017-09-26T10:04:15.127Z,15.71
2017-09-26T10:05:15.129Z,15.76
2017-09-26T10:06:15.133Z,15.82
2017-09-26T10:07:15.135Z,15.90
2017-09-26T10:08:15.138Z,15.97
2017-09-26T10:09:15.140Z,16.01
2017-09-26T10:10:15.148Z,16.07
2017-09-26T10:11:15.153Z,16.15
2017-09-26T10:12:15.148Z,16.20
2017-09-26T10:13:15.165Z,16.19
2017-09-26T10:14:15.258Z,16.19
2017-09-26T10:15:15.177Z,16.19
2017-09-26T10:16:15.174Z,16.21
2017-09-26T10:17:15.165Z,16.20
2017-09-26T10:18:15.177Z,16.20
2017-09-26T10:19:15.178Z,16.21
2017-09-26T10:20:15.251Z,16.15
2017-09-26T10:21:15.318Z,16.11
2017-09-26T10:22:15.184Z,16.10
2017-09-26T10:23:15.465Z,16.04
2017-09-26T10:24:15.215Z,16.03
2017-09-26T10:25:15.202Z,16.03
2017-09-26T10:26:15.209Z,16.08
2017-09-26T10:27:15.238Z,16.10
2017-09-26T10:28:15.209Z,16.11
2017-09-26T10:29:15.213Z,16.14
2017-09-26T10:30:15.228Z,16.11
2017-09-26T10:31:15.224Z,16.09
2017-09-26T10:32:15.222Z,16.07
2017-09-26T10:33:15.226Z,16.05
2017-09-26T10:34:15.227Z,16.05
2017-09-26T10:35:15.229Z,16.07
2017-09-26T10:36:15.307Z,16.08
2017-09-26T10:37:15.238Z,16.10
2017-09-26T10:38:15.237Z,16.09
2017-09-26T10:39:15.245Z,16.10
2017-09-26T10:40:15.248Z,16.05
2017-09-26T10:41:15.247Z,15.99
2017-09-26T10:42:15.254Z,15.98
2017-09-26T10:43:15.256Z,15.98
2017-09-26T10:44:15.262Z,16.00
2017-09-26T10:45:15.270Z,16.01
2017-09-26T10:46:15.269Z,15.99
2017-09-26T10:47:15.263Z,15.93
2017-09-26T10:48:15.274Z,15.89
2017-09-26T10:49:15.275Z,15.86
2017-09-26T10:50:15.279Z,15.82
2017-09-26T10:51:15.280Z,15.81
2017-09-26T10:52:15.281Z,15.82
2017-09-26T10:53:15.285Z,15.83
2017-09-26T10:54:15.287Z,15.85
2017-09-26T10:55:15.294Z,15.82
2017-09-26T10:56:15.298Z,15.83
2017-09-26T10:57:15.297Z,15.84
2017-09-26T10:58:15.300Z,15.88
2017-09-26T10:59:15.314Z,15.93
2017-09-26T11:00:15.315Z,15.96
2017-09-26T11:01:15.309Z,15.97
2017-09-26T11:02:15.313Z,15.98
2017-09-26T11:03:15.330Z,15.94
2017-09-26T11:04:15.320Z,15.89
2017-09-26T11:05:15.325Z,15.84
2017-09-26T11:06:15.326Z,15.84
2017-09-26T11:07:15.336Z,15.83
2017-09-26T11:08:15.334Z,15.83
2017-09-26T11:09:15.343Z,15.83
2017-09-26T11:10:15.343Z,15.85
2017-09-26T11:11:15.352Z,15.89
2017-09-26T11:12:15.349Z,15.92
2017-09-26T11:13:15.357Z,15.97
2017-09-26T11:14:15.404Z,15.99
2017-09-26T11:15:15.356Z,16.00
2017-09-26T11:16:15.893Z,15.99
2017-09-26T11:17:15.363Z,16.01
2017-09-26T11:18:15.367Z,16.03
2017-09-26T11:19:15.370Z,16.05
2017-09-26T11:20:15.372Z,16.09
2017-09-26T11:21:15.377Z,16.15
2017-09-26T11:22:15.381Z,16.21
2017-09-26T11:23:15.384Z,16.25
2017-09-26T11:24:15.385Z,16.34
2017-09-26T11:25:15.401Z,16.37
2017-09-26T11:26:15.396Z,16.41
2017-09-26T11:27:15.411Z,16.46
2017-09-26T11:28:15.404Z,16.48
2017-09-26T11:29:15.407Z,16.50
2017-09-26T11:30:15.415Z,16.52
2017-09-26T11:31:15.429Z,16.52
2017-09-26T11:32:15.414Z,16.51
2017-09-26T11:33:15.417Z,16.53
2017-09-26T11:34:15.424Z,16.55
2017-09-26T11:35:15.423Z,16.59
2017-09-26T11:36:15.430Z,16.68
2017-09-26T11:37:15.432Z,16.81
2017-09-26T11:38:15.432Z,16.96
2017-09-26T11:39:15.438Z,17.10
2017-09-26T11:40:15.447Z,17.17
2017-09-26T11:41:15.446Z,17.23
2017-09-26T11:42:15.453Z,17.25
2017-09-26T11:43:15.478Z,17.37
2017-09-26T11:44:15.455Z,17.43
2017-09-26T11:45:15.479Z,17.50
2017-09-26T11:46:15.482Z,17.54
2017-09-26T11:47:15.466Z,17.58
2017-09-26T11:48:15.469Z,17.59
2017-09-26T11:49:15.468Z,17.62
2017-09-26T11:50:15.540Z,17.66
2017-09-26T11:51:15.488Z,17.69
2017-09-26T11:52:15.479Z,17.71
2017-09-26T11:53:15.483Z,17.69
2017-09-26T11:54:15.489Z,17.70
2017-09-26T11:55:15.489Z,17.73
2017-09-26T11:56:15.521Z,17.72
2017-09-26T11:57:15.501Z,17.69
2017-09-26T11:58:15.517Z,17.63
2017-09-26T11:59:15.507Z,17.56
2017-09-26T12:00:15.512Z,17.52
2017-09-26T12:01:15.539Z,17.51
2017-09-26T12:02:15.528Z,17.49
2017-09-26T12:03:15.518Z,17.51
2017-09-26T12:04:15.520Z,17.50
2017-09-26T12:05:15.522Z,17.47
2017-09-26T12:06:15.534Z,17.51
2017-09-26T12:07:15.541Z,17.52
2017-09-26T12:08:15.540Z,17.50
2017-09-26T12:09:15.552Z,17.45
2017-09-26T12:10:15.561Z,17.42
2017-09-26T12:11:15.542Z,17.41
2017-09-26T12:12:15.550Z,17.40
2017-09-26T12:13:15.552Z,17.38
2017-09-26T12:14:16.982Z,17.37
2017-09-26T12:15:15.796Z,17.39
2017-09-26T12:16:15.654Z,17.38
2017-09-26T12:17:15.566Z,17.39
2017-09-26T12:18:15.565Z,17.31
2017-09-26T12:19:15.570Z,17.25
2017-09-26T12:20:15.575Z,17.20
2017-09-26T12:21:15.577Z,17.13
2017-09-26T12:22:15.581Z,17.06
2017-09-26T12:23:15.588Z,17.04
2017-09-26T12:24:15.589Z,17.02
2017-09-26T12:25:15.591Z,17.01
2017-09-26T12:26:15.600Z,17.03
2017-09-26T12:27:15.628Z,17.04
2017-09-26T12:28:15.608Z,17.04
2017-09-26T12:29:15.605Z,17.06
2017-09-26T12:30:15.612Z,17.07
2017-09-26T12:31:15.619Z,17.09
2017-09-26T12:32:15.621Z,17.07
2017-09-26T12:33:15.629Z,17.06
2017-09-26T12:34:15.624Z,17.04
2017-09-26T12:35:15.627Z,16.99
2017-09-26T12:36:15.629Z,17.03
2017-09-26T12:37:15.631Z,17.04
2017-09-26T12:38:15.650Z,17.06
2017-09-26T12:39:15.638Z,17.13
2017-09-26T12:40:15.641Z,17.15
2017-09-26T12:41:15.646Z,17.18
2017-09-26T12:42:15.650Z,17.21
2017-09-26T12:43:15.656Z,17.24
2017-09-26T12:44:15.663Z,17.30
2017-09-26T12:45:15.658Z,17.29
2017-09-26T12:46:15.663Z,17.35
2017-09-26T12:47:15.663Z,17.42
2017-09-26T12:48:15.668Z,17.47
2017-09-26T12:49:15.674Z,17.50
2017-09-26T12:50:15.676Z,17.53
2017-09-26T12:51:15.679Z,17.58